createdAt,value
2022-09-28T00:02:13.725Z,15.40
2022-09-28T00:04:40.553Z,15.40
2022-09-28T00:07:07.286Z,15.40
2022-09-28T00:09:34.079Z,15.50
2022-09-28T00:12:01.237Z,15.50
2022-09-28T00:14:28.334Z,15.50
2022-09-28T00:16:55.064Z,15.50
2022-09-28T00:19:21.793Z,15.50
2022-09-28T00:21:48.571Z,15.40
2022-09-28T00:24:15.954Z,15.40
2022-09-28T00:26:43.873Z,15.30
2022-09-28T00:29:16.467Z,14.90
2022-09-28T00:31:43.458Z,14.60
2022-09-28T00:34:10.332Z,14.30
2022-09-28T00:36:37.123Z,14.10
2022-09-28T00:39:07.085Z,14.00
2022-09-28T00:41:34.016Z,13.90
2022-09-28T00:44:19.407Z,13.90
2022-09-28T00:46:46.174Z,13.90
2022-09-28T00:49:14.541Z,13.90
2022-09-28T00:51:41.369Z,14.00
2022-09-28T00:54:08.087Z,14.00
2022-09-28T00:56:35.304Z,14.10
2022-09-28T00:59:02.246Z,14.10
2022-09-28T01:01:29.040Z,14.20
2022-09-28T01:03:55.775Z,14.20
2022-09-28T01:06:23.218Z,14.30
2022-09-28T01:08:51.303Z,14.20
2022-09-28T01:11:18.632Z,14.20
2022-09-28T01:13:45.869Z,14.20
2022-09-28T01:16:24.769Z,14.20
2022-09-28T01:19:10.291Z,14.10
2022-09-28T01:21:38.573Z,13.90
2022-09-28T01:24:05.299Z,13.70
2022-09-28T01:26:32.017Z,13.50
2022-09-28T01:29:06.422Z,13.30
2022-09-28T01:31:33.206Z,13.00
2022-09-28T01:34:04.988Z,12.90
2022-09-28T01:36:34.867Z,12.90
2022-09-28T01:39:03.381Z,12.90
2022-09-28T01:41:30.269Z,13.00
2022-09-28T01:43:57.581Z,13.00
2022-09-28T01:46:28.080Z,13.00
2022-09-28T01:48:56.456Z,13.00
2022-09-28T01:51:34.226Z,13.10
2022-09-28T01:54:01.875Z,13.20
2022-09-28T01:56:29.911Z,13.10
2022-09-28T01:59:00.777Z,13.20
2022-09-28T02:01:29.730Z,13.20
2022-09-28T02:04:04.628Z,13.20
2022-09-28T02:06:33.303Z,13.30
2022-09-28T02:09:02.096Z,13.40
2022-09-28T02:11:28.842Z,13.60
2022-09-28T02:13:58.564Z,13.60
2022-09-28T02:16:39.413Z,13.70
2022-09-28T02:19:06.355Z,13.70
2022-09-28T02:21:38.297Z,13.70
2022-09-28T02:24:10.227Z,13.80
2022-09-28T02:26:38.996Z,13.80
2022-09-28T02:29:05.753Z,13.80
2022-09-28T02:31:32.539Z,13.80
2022-09-28T02:33:59.453Z,13.80
2022-09-28T02:36:26.767Z,13.90
2022-09-28T02:38:53.656Z,13.90
2022-09-28T02:41:23.567Z,13.90
2022-09-28T02:43:53.971Z,13.90
2022-09-28T02:46:34.623Z,13.90
2022-09-28T02:49:20.962Z,13.90
2022-09-28T02:51:51.423Z,13.90
2022-09-28T02:54:33.154Z,13.90
2022-09-28T02:57:05.802Z,13.90
2022-09-28T02:59:32.550Z,14.00
2022-09-28T03:02:02.340Z,13.90
2022-09-28T03:04:29.384Z,13.90
2022-09-28T03:06:58.986Z,13.90
2022-09-28T03:09:33.513Z,13.90
2022-09-28T03:12:01.149Z,13.90
2022-09-28T03:14:27.910Z,13.90
2022-09-28T03:16:54.672Z,13.90
2022-09-28T03:19:22.735Z,13.90
2022-09-28T03:21:49.936Z,13.80
2022-09-28T03:24:16.648Z,13.70
2022-09-28T03:26:43.402Z,13.80
2022-09-28T03:29:10.187Z,13.70
2022-09-28T03:31:37.001Z,13.70
2022-09-28T03:34:03.983Z,13.80
2022-09-28T03:36:30.744Z,13.80
2022-09-28T03:38:57.817Z,13.80
2022-09-28T03:41:24.650Z,13.80
2022-09-28T03:43:51.692Z,13.80
2022-09-28T03:46:18.511Z,13.90
2022-09-28T03:48:45.271Z,13.90
2022-09-28T03:51:12.289Z,13.90
2022-09-28T03:53:39.143Z,14.00
2022-09-28T03:56:06.799Z,13.90
2022-09-28T03:58:33.627Z,13.90
2022-09-28T04:01:04.528Z,13.90
2022-09-28T04:03:31.563Z,13.90
2022-09-28T04:05:58.382Z,13.90
2022-09-28T04:08:25.227Z,13.90
2022-09-28T04:10:52.006Z,13.90
2022-09-28T04:13:18.819Z,13.80
2022-09-28T04:15:51.914Z,13.70
2022-09-28T04:18:18.628Z,13.60
2022-09-28T04:20:48.064Z,13.60
2022-09-28T04:23:17.784Z,13.50
2022-09-28T04:25:47.921Z,13.40
2022-09-28T04:28:33.002Z,13.30
2022-09-28T04:30:59.734Z,13.20
2022-09-28T04:33:26.487Z,13.20
2022-09-28T04:35:53.261Z,13.10
2022-09-28T04:38:35.651Z,13.00
2022-09-28T04:41:07.031Z,13.00
2022-09-28T04:43:33.793Z,12.90
2022-09-28T04:46:03.419Z,12.90
2022-09-28T04:48:30.170Z,12.90
2022-09-28T04:50:57.091Z,12.80
2022-09-28T04:53:24.013Z,12.90
2022-09-28T04:56:00.478Z,12.90
2022-09-28T04:58:27.370Z,12.90
2022-09-28T05:00:54.768Z,12.90
2022-09-28T05:03:21.672Z,13.00
2022-09-28T05:05:49.086Z,13.00
2022-09-28T05:08:16.295Z,13.00
2022-09-28T05:10:43.252Z,13.00
2022-09-28T05:13:10.378Z,13.00
2022-09-28T05:15:37.449Z,13.00
2022-09-28T05:18:04.435Z,13.30
2022-09-28T05:20:31.212Z,13.80
2022-09-28T05:22:57.995Z,14.10
2022-09-28T05:25:24.749Z,14.10
2022-09-28T05:27:55.855Z,14.00
2022-09-28T05:30:22.936Z,14.00
2022-09-28T05:32:51.135Z,13.90
2022-09-28T05:35:17.941Z,14.00
2022-09-28T05:37:44.723Z,15.30
2022-09-28T05:40:11.472Z,16.40
2022-09-28T05:42:38.242Z,17.60
2022-09-28T05:45:05.251Z,18.80
2022-09-28T05:47:32.202Z,20.00
2022-09-28T05:49:58.925Z,21.20
2022-09-28T05:52:25.669Z,22.10
2022-09-28T05:54:52.416Z,22.50
2022-09-28T05:57:19.159Z,22.70
2022-09-28T05:59:46.045Z,22.70
2022-09-28T06:02:12.858Z,22.50
2022-09-28T06:04:39.613Z,22.30
2022-09-28T06:07:06.381Z,21.80
2022-09-28T06:09:33.156Z,21.20
2022-09-28T06:11:59.990Z,20.50
2022-09-28T06:14:26.745Z,19.80
2022-09-28T06:16:53.557Z,19.70
2022-09-28T06:19:20.369Z,20.20
2022-09-28T06:21:47.473Z,20.30
2022-09-28T06:24:14.346Z,20.00
2022-09-28T06:26:41.178Z,19.60
2022-09-28T06:29:07.970Z,19.30
2022-09-28T06:31:34.746Z,19.00
2022-09-28T06:34:01.897Z,18.80
2022-09-28T06:36:29.375Z,18.90
2022-09-28T06:38:56.120Z,19.00
2022-09-28T06:41:23.034Z,19.10
2022-09-28T06:43:49.768Z,19.10
2022-09-28T06:46:16.564Z,19.10
2022-09-28T06:48:44.375Z,19.00
2022-09-28T06:51:11.147Z,19.10
2022-09-28T06:53:37.977Z,19.30
2022-09-28T06:56:06.174Z,19.60
2022-09-28T06:58:32.939Z,20.10
2022-09-28T07:01:00.094Z,21.30
2022-09-28T07:03:27.104Z,22.70
2022-09-28T07:05:54.203Z,24.40
2022-09-28T07:08:21.528Z,26.00
2022-09-28T07:10:48.955Z,27.20
2022-09-28T07:13:39.601Z,28.10
2022-09-28T07:16:02.878Z,28.30
2022-09-28T07:18:30.007Z,28.00
2022-09-28T07:20:59.864Z,28.30
2022-09-28T07:23:34.656Z,29.00
2022-09-28T07:26:06.946Z,29.50
2022-09-28T07:28:35.149Z,29.60
2022-09-28T07:31:03.432Z,29.80
2022-09-28T07:33:32.952Z,30.00
2022-09-28T07:36:02.835Z,30.00
2022-09-28T07:38:29.636Z,30.10
2022-09-28T07:41:14.912Z,30.40
2022-09-28T07:43:41.701Z,30.60
2022-09-28T07:46:12.154Z,30.80
2022-09-28T07:48:42.373Z,30.60
2022-09-28T07:51:09.417Z,30.40
2022-09-28T07:53:38.286Z,30.00
2022-09-28T07:56:09.075Z,29.90
2022-09-28T07:58:36.230Z,29.80
2022-09-28T08:01:04.101Z,30.10
2022-09-28T08:03:30.869Z,30.60
2022-09-28T08:06:12.684Z,31.50
2022-09-28T08:08:43.926Z,32.20
2022-09-28T08:11:11.572Z,32.90
2022-09-28T08:13:38.322Z,33.10
2022-09-28T08:16:05.958Z,33.40
2022-09-28T08:18:32.685Z,33.70
2022-09-28T08:21:18.092Z,33.20
2022-09-28T08:23:44.846Z,32.80
2022-09-28T08:26:15.413Z,32.40
2022-09-28T08:28:43.394Z,31.90
2022-09-28T08:31:10.216Z,31.50
2022-09-28T08:33:37.076Z,31.20
2022-09-28T08:36:04.561Z,30.40
2022-09-28T08:38:31.391Z,29.90
2022-09-28T08:41:10.045Z,30.20
2022-09-28T08:43:55.679Z,30.60
2022-09-28T08:46:25.174Z,31.40
2022-09-28T08:49:20.524Z,31.70
2022-09-28T08:51:44.497Z,32.30
2022-09-28T08:54:29.412Z,33.10
2022-09-28T08:57:06.713Z,33.60
2022-09-28T08:59:59.940Z,33.80
2022-09-28T09:02:33.571Z,34.30
2022-09-28T09:05:00.870Z,34.70
2022-09-28T09:07:27.611Z,35.00
2022-09-28T09:09:57.297Z,35.40
2022-09-28T09:12:24.021Z,35.60
2022-09-28T09:14:50.774Z,35.80
2022-09-28T09:17:35.938Z,35.40
2022-09-28T09:20:11.643Z,34.60
2022-09-28T09:22:42.206Z,34.30
2022-09-28T09:25:10.510Z,34.60
2022-09-28T09:27:47.586Z,34.70
2022-09-28T09:30:20.215Z,34.50
2022-09-28T09:33:10.704Z,34.00
2022-09-28T09:35:49.361Z,33.00
2022-09-28T09:38:17.519Z,31.40
2022-09-28T09:40:53.292Z,29.60
2022-09-28T09:43:38.694Z,28.30
2022-09-28T09:46:19.567Z,27.40
2022-09-28T09:49:09.492Z,26.90
2022-09-28T09:51:46.743Z,26.70
2022-09-28T09:54:19.207Z,26.30
2022-09-28T09:56:48.931Z,25.80
2022-09-28T09:59:18.929Z,25.50
2022-09-28T10:01:45.899Z,25.30
2022-09-28T10:04:23.587Z,25.40
2022-09-28T10:06:51.388Z,25.40
2022-09-28T10:09:25.146Z,25.30
2022-09-28T10:11:52.142Z,25.10
2022-09-28T10:14:22.335Z,25.10
2022-09-28T10:16:49.729Z,25.30
2022-09-28T10:19:18.881Z,26.30
2022-09-28T10:21:46.987Z,27.80
2022-09-28T10:24:34.003Z,29.20
2022-09-28T10:27:07.692Z,30.10
2022-09-28T10:29:43.577Z,31.00
2022-09-28T10:32:17.620Z,31.40
2022-09-28T10:34:48.734Z,31.80
2022-09-28T10:37:18.041Z,32.30
2022-09-28T10:39:48.334Z,32.00
2022-09-28T10:42:22.295Z,31.40
2022-09-28T10:44:53.252Z,30.60
2022-09-28T10:47:20.271Z,29.90
2022-09-28T10:49:48.556Z,29.40
2022-09-28T10:52:34.303Z,28.90
2022-09-28T10:55:01.505Z,28.50
2022-09-28T10:57:29.291Z,28.00
2022-09-28T10:59:56.090Z,27.60
2022-09-28T11:02:26.504Z,27.40
2022-09-28T11:04:54.383Z,27.00
2022-09-28T11:07:25.374Z,26.70
2022-09-28T11:09:52.423Z,26.40
2022-09-28T11:12:26.426Z,26.20
2022-09-28T11:14:57.012Z,25.90
2022-09-28T11:17:27.912Z,25.60
2022-09-28T11:19:55.233Z,25.40
2022-09-28T11:22:23.086Z,25.20
2022-09-28T11:24:49.925Z,25.10
2022-09-28T11:27:20.611Z,25.10
2022-09-28T11:29:53.096Z,25.00
2022-09-28T11:32:19.828Z,25.10
2022-09-28T11:34:59.003Z,24.80
2022-09-28T11:37:31.387Z,24.70
2022-09-28T11:40:11.521Z,24.60
2022-09-28T11:42:44.428Z,24.50
2022-09-28T11:45:32.605Z,24.50
2022-09-28T11:48:00.824Z,24.60
2022-09-28T11:50:47.876Z,24.70
2022-09-28T11:53:25.716Z,24.80
2022-09-28T11:55:57.571Z,24.90
2022-09-28T11:58:26.371Z,25.00
2022-09-28T12:00:55.134Z,25.10
2022-09-28T12:03:23.032Z,25.10
2022-09-28T12:05:57.134Z,25.10
2022-09-28T12:08:28.649Z,25.20
2022-09-28T12:11:03.278Z,25.20
2022-09-28T12:13:31.915Z,25.20
2022-09-28T12:16:45.291Z,25.10
2022-09-28T12:18:55.281Z,25.00
2022-09-28T12:21:24.851Z,24.80
2022-09-28T12:23:55.955Z,24.70
2022-09-28T12:26:34.643Z,24.60
2022-09-28T12:29:07.195Z,24.60
2022-09-28T12:31:43.478Z,24.50
2022-09-28T12:34:10.202Z,24.40
2022-09-28T12:36:41.808Z,24.50
2022-09-28T12:39:35.527Z,24.40
2022-09-28T12:42:07.872Z,24.30
2022-09-28T12:44:55.918Z,24.10
2022-09-28T12:47:28.724Z,23.80
2022-09-28T12:50:37.996Z,23.50
2022-09-28T12:53:07.478Z,23.40
2022-09-28T12:55:54.280Z,23.40
2022-09-28T12:58:30.065Z,23.50
2022-09-28T13:00:56.863Z,23.70
2022-09-28T13:03:42.729Z,23.90
2022-09-28T13:06:24.298Z,24.10
2022-09-28T13:08:55.451Z,24.10
2022-09-28T13:11:41.331Z,24.00
2022-09-28T13:14:26.660Z,23.80
2022-09-28T13:16:56.144Z,23.60
2022-09-28T13:19:41.555Z,23.50
2022-09-28T13:22:11.037Z,23.50
2022-09-28T13:24:38.408Z,23.40
2022-09-28T13:27:06.750Z,23.30
2022-09-28T13:29:35.088Z,23.30
2022-09-28T13:32:02.383Z,23.10
2022-09-28T13:34:29.543Z,22.90
2022-09-28T13:37:17.635Z,22.90
2022-09-28T13:39:44.406Z,22.90
2022-09-28T13:42:26.295Z,22.90
2022-09-28T13:44:59.577Z,22.90
2022-09-28T13:47:32.566Z,22.90
2022-09-28T13:50:02.047Z,22.90
2022-09-28T13:52:44.887Z,22.90
2022-09-28T13:55:18.986Z,22.90
2022-09-28T13:57:48.850Z,22.90
2022-09-28T14:00:15.923Z,23.00
2022-09-28T14:02:46.885Z,23.00
2022-09-28T14:05:22.809Z,23.00
2022-09-28T14:08:08.238Z,23.00
2022-09-28T14:10:51.941Z,23.10
2022-09-28T14:13:36.903Z,23.10
2022-09-28T14:16:18.731Z,23.00
2022-09-28T14:19:07.113Z,23.00
2022-09-28T14:21:52.579Z,23.00
2022-09-28T14:24:26.681Z,22.90
2022-09-28T14:26:53.795Z,22.90
2022-09-28T14:29:27.512Z,22.80
2022-09-28T14:31:58.357Z,22.70
2022-09-28T14:34:26.190Z,22.60
2022-09-28T14:37:11.639Z,22.60
2022-09-28T14:39:56.657Z,22.60
2022-09-28T14:42:24.146Z,22.60
2022-09-28T14:45:06.675Z,22.60
2022-09-28T14:47:37.499Z,22.60
2022-09-28T14:50:18.702Z,22.60
2022-09-28T14:52:46.793Z,22.60
2022-09-28T14:55:14.390Z,22.60
2022-09-28T14:57:41.274Z,22.50
2022-09-28T15:00:09.181Z,22.40
2022-09-28T15:02:36.154Z,22.40
2022-09-28T15:05:02.979Z,22.30
2022-09-28T15:07:34.315Z,22.30
2022-09-28T15:10:02.526Z,22.20
2022-09-28T15:12:29.843Z,22.10
2022-09-28T15:15:04.191Z,22.00
2022-09-28T15:17:40.429Z,22.00
2022-09-28T15:20:29.949Z,21.90
2022-09-28T15:22:57.464Z,21.90
2022-09-28T15:25:29.407Z,21.90
2022-09-28T15:28:10.857Z,21.90
2022-09-28T15:30:38.348Z,21.90
2022-09-28T15:33:23.733Z,22.00
2022-09-28T15:36:02.085Z,22.00
2022-09-28T15:38:28.844Z,21.90
2022-09-28T15:40:56.148Z,21.90
2022-09-28T15:43:29.059Z,21.80
2022-09-28T15:46:05.778Z,21.80
2022-09-28T15:48:52.016Z,21.70
2022-09-28T15:51:22.157Z,21.70
2022-09-28T15:53:58.458Z,21.60
2022-09-28T15:56:25.724Z,21.50
2022-09-28T15:59:08.397Z,21.40
2022-09-28T16:01:36.736Z,21.40
2022-09-28T16:04:29.935Z,21.30
2022-09-28T16:07:09.147Z,21.20
2022-09-28T16:09:54.951Z,21.10
2022-09-28T16:12:21.999Z,21.10
2022-09-28T16:14:49.712Z,21.10
2022-09-28T16:17:17.330Z,21.00
2022-09-28T16:19:44.498Z,20.90
2022-09-28T16:22:13.474Z,20.80
2022-09-28T16:24:40.219Z,20.80
2022-09-28T16:27:25.823Z,20.80
2022-09-28T16:30:03.898Z,20.70
2022-09-28T16:32:49.626Z,20.70
2022-09-28T16:35:18.646Z,20.60
2022-09-28T16:37:45.392Z,20.60
2022-09-28T16:40:12.267Z,20.50
2022-09-28T16:42:39.210Z,20.50
2022-09-28T16:45:06.213Z,20.50
2022-09-28T16:47:34.281Z,20.40
2022-09-28T16:50:02.390Z,20.40
2022-09-28T16:52:47.785Z,20.30
2022-09-28T16:58:04.933Z,20.30
2022-09-28T17:00:32.560Z,20.20
2022-09-28T17:02:59.359Z,20.20
2022-09-28T17:05:26.244Z,20.10
2022-09-28T17:08:02.749Z,20.10
2022-09-28T17:10:41.069Z,20.10
2022-09-28T17:13:16.823Z,20.00
2022-09-28T17:15:43.719Z,19.90
2022-09-28T17:18:12.928Z,19.80
2022-09-28T17:20:39.641Z,19.70
2022-09-28T17:23:06.383Z,19.60
2022-09-28T17:25:33.116Z,19.60
2022-09-28T17:27:59.912Z,19.60
2022-09-28T17:30:26.698Z,19.60
2022-09-28T17:32:53.455Z,19.50
2022-09-28T17:35:25.052Z,19.50
2022-09-28T17:37:52.230Z,19.50
2022-09-28T17:40:19.028Z,19.50
2022-09-28T17:42:47.084Z,19.50
2022-09-28T17:45:14.645Z,19.50
2022-09-28T17:47:41.392Z,19.50
2022-09-28T17:50:27.960Z,19.50
2022-09-28T17:52:54.751Z,19.40
2022-09-28T17:55:27.457Z,19.40
2022-09-28T17:57:54.452Z,19.30
2022-09-28T18:00:21.247Z,19.30
2022-09-28T18:02:48.691Z,19.30
2022-09-28T18:05:15.484Z,19.20
2022-09-28T18:07:47.294Z,19.10
2022-09-28T18:10:18.306Z,19.10
2022-09-28T18:12:45.315Z,19.00
2022-09-28T18:15:12.096Z,19.00
2022-09-28T18:17:38.943Z,18.90
2022-09-28T18:20:06.452Z,18.90
2022-09-28T18:22:33.182Z,18.90
2022-09-28T18:24:59.919Z,18.90
2022-09-28T18:27:27.860Z,18.80
2022-09-28T18:29:54.582Z,18.70
2022-09-28T18:32:21.329Z,18.60
2022-09-28T18:34:48.108Z,18.50
2022-09-28T18:37:14.831Z,18.40
2022-09-28T18:39:41.544Z,18.30
2022-09-28T18:42:08.335Z,18.30
2022-09-28T18:44:35.100Z,18.20
2022-09-28T18:47:04.553Z,18.20
2022-09-28T18:49:31.376Z,18.10
2022-09-28T18:51:58.110Z,18.20
2022-09-28T18:54:25.470Z,18.10
2022-09-28T18:56:56.417Z,18.10
2022-09-28T18:59:23.485Z,18.00
2022-09-28T19:01:51.173Z,17.90
2022-09-28T19:04:20.097Z,17.80
2022-09-28T19:06:51.673Z,17.70
2022-09-28T19:09:19.064Z,17.60
2022-09-28T19:11:46.047Z,17.50
2022-09-28T19:14:15.632Z,17.60
2022-09-28T19:16:43.647Z,17.50
2022-09-28T19:19:11.973Z,17.50
2022-09-28T19:21:39.151Z,17.50
2022-09-28T19:24:06.072Z,17.50
2022-09-28T19:26:33.004Z,17.40
2022-09-28T19:28:59.767Z,17.40
2022-09-28T19:31:26.631Z,17.40
2022-09-28T19:33:53.354Z,17.30
2022-09-28T19:36:22.515Z,17.30
2022-09-28T19:38:49.299Z,17.30
2022-09-28T19:41:39.433Z,17.30
2022-09-28T19:44:27.562Z,17.20
2022-09-28T19:46:55.520Z,17.20
2022-09-28T19:49:22.702Z,17.10
2022-09-28T19:54:38.244Z,17.10
2022-09-28T19:57:07.981Z,17.10
2022-09-28T19:59:35.712Z,17.00
2022-09-28T20:02:03.225Z,17.00
2022-09-28T20:04:30.081Z,17.00
2022-09-28T20:06:56.815Z,16.90
2022-09-28T20:09:23.583Z,16.90
2022-09-28T20:11:51.931Z,17.00
2022-09-28T20:14:18.795Z,16.90
2022-09-28T20:16:46.357Z,16.90
2022-09-28T20:19:13.176Z,16.90
2022-09-28T20:21:39.950Z,17.00
2022-09-28T20:24:06.737Z,16.90
2022-09-28T20:26:37.962Z,16.90
2022-09-28T20:29:05.276Z,16.90
2022-09-28T20:31:32.089Z,16.80
2022-09-28T20:33:58.900Z,16.80
2022-09-28T20:36:25.745Z,16.80
2022-09-28T20:38:53.057Z,16.80
2022-09-28T20:41:20.569Z,16.80
2022-09-28T20:43:47.385Z,16.80
2022-09-28T20:46:14.210Z,16.80
2022-09-28T20:48:41.034Z,16.80
2022-09-28T20:51:12.185Z,16.80
2022-09-28T20:53:39.383Z,16.80
2022-09-28T20:56:07.029Z,16.80
2022-09-28T20:58:34.333Z,16.80
2022-09-28T21:01:04.864Z,16.80
2022-09-28T21:03:31.674Z,16.70
2022-09-28T21:05:58.522Z,16.70
2022-09-28T21:08:25.804Z,16.70
2022-09-28T21:10:55.538Z,16.70
2022-09-28T21:13:22.307Z,16.70
2022-09-28T21:15:49.216Z,16.70
2022-09-28T21:18:16.370Z,16.70
2022-09-28T21:20:46.595Z,16.70
2022-09-28T21:23:13.840Z,16.70
2022-09-28T21:25:40.681Z,16.80
2022-09-28T21:28:07.685Z,16.80
2022-09-28T21:30:34.404Z,16.90
2022-09-28T21:33:04.210Z,16.90
2022-09-28T21:35:31.874Z,16.90
2022-09-28T21:37:58.642Z,16.90
2022-09-28T21:40:25.478Z,16.90
2022-09-28T21:42:52.417Z,16.90
2022-09-28T21:45:19.195Z,16.90
2022-09-28T21:47:52.867Z,16.90
2022-09-28T21:50:22.922Z,16.90
2022-09-28T21:52:50.380Z,16.90
2022-09-28T21:55:17.294Z,16.90
2022-09-28T21:57:47.359Z,16.90
2022-09-28T22:00:15.224Z,16.90
2022-09-28T22:02:42.352Z,16.90
2022-09-28T22:05:09.733Z,16.90
2022-09-28T22:07:36.842Z,16.90
2022-09-28T22:10:03.655Z,16.90
2022-09-28T22:12:30.399Z,16.90
2022-09-28T22:14:57.145Z,16.80
2022-09-28T22:17:23.906Z,16.70
2022-09-28T22:19:50.749Z,16.70
2022-09-28T22:22:17.652Z,16.70
2022-09-28T22:24:44.380Z,16.70
2022-09-28T22:27:11.127Z,16.70
2022-09-28T22:29:37.859Z,16.70
2022-09-28T22:32:04.664Z,16.80
2022-09-28T22:34:32.770Z,16.80
2022-09-28T22:36:59.539Z,16.80
2022-09-28T22:39:26.269Z,16.70
2022-09-28T22:41:53.000Z,16.70
2022-09-28T22:44:19.982Z,16.70
2022-09-28T22:46:46.910Z,16.70
2022-09-28T22:49:13.833Z,16.60
2022-09-28T22:51:40.736Z,16.60
2022-09-28T22:54:07.435Z,16.60
2022-09-28T22:56:34.163Z,16.60
2022-09-28T22:59:00.949Z,16.60
2022-09-28T23:01:28.523Z,16.60
2022-09-28T23:03:55.456Z,16.60
2022-09-28T23:06:22.757Z,16.50
2022-09-28T23:08:50.671Z,16.50
2022-09-28T23:11:17.439Z,16.40
2022-09-28T23:13:48.179Z,16.40
2022-09-28T23:16:15.145Z,16.40
2022-09-28T23:18:42.044Z,16.50
2022-09-28T23:21:15.772Z,16.50
2022-09-28T23:23:42.818Z,16.50
2022-09-28T23:26:19.696Z,16.40
2022-09-28T23:28:46.518Z,16.40
2022-09-28T23:31:17.215Z,16.40
2022-09-28T23:33:44.013Z,16.30
2022-09-28T23:36:10.782Z,16.30
2022-09-28T23:38:37.832Z,16.30
2022-09-28T23:41:04.784Z,16.20
2022-09-28T23:43:31.518Z,16.20
2022-09-28T23:45:58.225Z,16.10
2022-09-28T23:48:24.952Z,16.10
2022-09-28T23:50:51.722Z,16.10
2022-09-28T23:53:18.443Z,16.00
2022-09-28T23:55:45.178Z,16.00
2022-09-28T23:58:11.998Z,16.00
